Ana Sayfa
METAR-TAF:

METAR-TAF

Havaalanları :

Wakefield Municipal Airport

Wakefield, Virginia, Amerika Birleşik Devletleri

Enlem: 36-58-53N, Boylam: 077-00-04W, yükseklik: 34 m

Güncel hava durumu gözlemi

Rapor saat 11:54 UTC de 10 dakika önce yapıldı.
Rüzgar değişken yönden 6 kt
Sıcaklık 3°C
Nem 87%
Basınç 1027 hPa
Görüş mesafesi: 12.9 km
1000 ft yükseklikte az bulutlu
2000 ft yükseklikte parçalı çok bulutlu
2400 ft yükseklikte çok bulutlu
bilinmiyor

METAR: KAKQ 111154Z AUTO VRB06KT 8SM UP FEW010 BKN020 OVC024 03/01 A3033 RMK AO2 RAE52UPB52 SLP271 P0006 60046 70048 T00280011 10100 20028 51044

Saat: 07:04 (12:04 UTC)


TAF: eksik

4.000'den fazla havaalanı için hava durumu gözlemleri ve tahminleri (METAR ve TAF raporları).

Kullanılabilir istasyonlar harita üzerinde sarı ve kırmızı noktalarla gösterilir.

İstasyonun adını görmek için fareyi noktanın üzerinde gezdirin.

Sonrasında hava gözlem ve tahminlerini görmek için tıklayın.

Haritayı değiştirmek için: yaklaştırmak için siyah artı işaretli yeşil düğmeye ve uzaklaştırmak için de eksi işaretli düğmeye hızla tıklayın; bitişik haritalar için yeşil okları kullanın.


METAR-TAF: